createdAt,value
2018-08-06T00:01:27.580Z,100042.00
2018-08-06T00:03:57.496Z,100029.00
2018-08-06T00:06:43.300Z,100032.00
2018-08-06T00:09:13.895Z,100033.00
2018-08-06T00:11:44.022Z,100029.00
2018-08-06T00:14:14.458Z,100026.00
2018-08-06T00:16:45.066Z,100023.00
2018-08-06T00:19:15.846Z,100021.00
2018-08-06T00:21:46.447Z,100023.00
2018-08-06T00:24:17.291Z,100017.00
2018-08-06T00:26:48.046Z,100019.00
2018-08-06T00:29:18.265Z,100014.00
2018-08-06T00:31:48.602Z,100009.00
2018-08-06T00:34:18.722Z,100015.00
2018-08-06T00:36:48.646Z,100017.00
2018-08-06T00:39:18.392Z,100016.00
2018-08-06T00:41:48.744Z,100017.00
2018-08-06T00:44:18.873Z,100018.00
2018-08-06T00:46:49.050Z,100024.00
2018-08-06T00:49:19.238Z,100013.00
2018-08-06T00:51:49.146Z,100026.00
2018-08-06T00:54:19.136Z,100021.00
2018-08-06T00:56:48.993Z,100020.00
2018-08-06T00:59:18.765Z,100018.00
2018-08-06T01:01:49.319Z,100021.00
2018-08-06T01:04:19.380Z,100017.00
2018-08-06T01:06:49.182Z,100019.00
2018-08-06T01:09:19.242Z,100018.00
2018-08-06T01:11:49.165Z,100019.00
2018-08-06T01:14:19.108Z,100021.00
2018-08-06T01:16:49.247Z,100019.00
2018-08-06T01:19:19.530Z,100019.00
2018-08-06T01:21:49.876Z,100020.00
2018-08-06T01:24:19.914Z,100029.00
2018-08-06T01:26:49.829Z,100027.00
2018-08-06T01:29:19.692Z,100028.00
2018-08-06T01:31:49.914Z,100028.00
2018-08-06T01:34:19.957Z,100026.00
2018-08-06T01:36:50.028Z,100028.00
2018-08-06T01:39:20.003Z,100027.00
2018-08-06T01:41:50.199Z,100028.00
2018-08-06T01:44:20.226Z,100026.00
2018-08-06T01:46:50.338Z,100024.00
2018-08-06T01:49:20.409Z,100019.00
2018-08-06T01:51:50.583Z,100019.00
2018-08-06T01:54:20.566Z,100019.00
2018-08-06T01:56:50.586Z,100011.00
2018-08-06T01:59:20.682Z,100010.00
2018-08-06T02:01:50.858Z,100011.00
2018-08-06T02:04:20.706Z,99996.00
2018-08-06T02:06:50.614Z,99996.00
2018-08-06T02:09:20.631Z,99992.00
2018-08-06T02:11:50.654Z,99990.00
2018-08-06T02:14:20.645Z,99996.00
2018-08-06T02:16:50.695Z,99989.00
2018-08-06T02:19:20.942Z,99985.00
2018-08-06T02:21:51.164Z,99982.00
2018-08-06T02:24:21.231Z,99980.00
2018-08-06T02:26:51.126Z,99973.00
2018-08-06T02:29:21.026Z,99972.00
2018-08-06T02:31:51.123Z,99973.00
2018-08-06T02:34:21.122Z,99969.00
2018-08-06T02:36:51.202Z,99963.00
2018-08-06T02:39:21.508Z,99961.00
2018-08-06T02:41:51.542Z,99956.00
2018-08-06T02:44:21.583Z,99961.00
2018-08-06T02:46:51.750Z,99958.00
2018-08-06T02:49:21.778Z,99950.00
2018-08-06T02:51:51.807Z,99958.00
2018-08-06T02:54:21.610Z,99956.00
2018-08-06T02:56:51.250Z,99949.00
2018-08-06T02:59:21.149Z,99948.00
2018-08-06T03:01:51.299Z,99949.00
2018-08-06T03:04:21.367Z,99947.00
2018-08-06T03:06:51.371Z,99941.00
2018-08-06T03:09:21.147Z,99937.00
2018-08-06T03:11:51.010Z,99940.00
2018-08-06T03:14:21.088Z,99941.00
2018-08-06T03:16:51.119Z,99946.00
2018-08-06T03:19:21.106Z,99947.00
2018-08-06T03:21:50.861Z,99946.00
2018-08-06T03:24:20.749Z,99943.00
2018-08-06T03:26:50.811Z,99943.00
2018-08-06T03:29:20.810Z,99939.00
2018-08-06T03:31:51.083Z,99947.00
2018-08-06T03:34:21.082Z,99950.00
2018-08-06T03:36:51.084Z,99941.00
2018-08-06T03:39:21.315Z,99940.00
2018-08-06T03:41:51.126Z,99942.00
2018-08-06T03:44:21.093Z,99941.00
2018-08-06T03:46:51.290Z,99943.00
2018-08-06T03:49:21.294Z,99935.00
2018-08-06T03:51:51.094Z,99935.00
2018-08-06T03:54:21.111Z,99945.00
2018-08-06T03:56:51.130Z,99948.00
2018-08-06T03:59:21.191Z,99946.00
2018-08-06T04:01:51.178Z,99941.00
2018-08-06T04:04:21.247Z,99945.00
2018-08-06T04:06:51.384Z,99950.00
2018-08-06T04:09:21.114Z,99952.00
2018-08-06T04:12:04.036Z,99953.00
2018-08-06T04:14:37.645Z,99954.00
2018-08-06T04:17:09.478Z,99955.00
2018-08-06T04:19:40.777Z,99959.00
2018-08-06T04:22:11.607Z,99962.00
2018-08-06T04:24:42.400Z,99958.00
2018-08-06T04:27:13.181Z,99962.00
2018-08-06T04:29:45.193Z,99969.00
2018-08-06T04:32:15.691Z,99969.00
2018-08-06T04:34:46.076Z,99965.00
2018-08-06T04:37:16.450Z,99976.00
2018-08-06T04:39:48.398Z,99971.00
2018-08-06T04:42:18.153Z,99972.00
2018-08-06T04:44:48.207Z,99974.00
2018-08-06T04:47:18.323Z,99972.00
2018-08-06T04:49:48.305Z,99967.00
2018-08-06T04:52:17.930Z,99965.00
2018-08-06T04:54:51.415Z,99962.00
2018-08-06T04:57:21.426Z,99964.00
2018-08-06T04:59:51.438Z,99969.00
2018-08-06T05:02:21.187Z,99972.00
2018-08-06T05:04:51.063Z,99968.00
2018-08-06T05:07:21.068Z,99972.00
2018-08-06T05:09:51.369Z,99973.00
2018-08-06T05:12:21.238Z,99974.00
2018-08-06T05:14:51.038Z,99977.00
2018-08-06T05:17:20.894Z,99977.00
2018-08-06T05:19:50.914Z,99978.00
2018-08-06T05:22:20.722Z,99978.00
2018-08-06T05:24:50.642Z,99976.00
2018-08-06T05:27:21.198Z,99975.00
2018-08-06T05:29:51.434Z,99980.00
2018-08-06T05:32:21.476Z,99981.00
2018-08-06T05:34:51.473Z,99983.00
2018-08-06T05:37:21.510Z,99988.00
2018-08-06T05:39:52.663Z,99990.00
2018-08-06T05:42:22.502Z,99986.00
2018-08-06T05:44:52.376Z,99982.00
2018-08-06T05:47:22.386Z,99987.00
2018-08-06T05:49:52.397Z,99987.00
2018-08-06T05:52:22.415Z,99993.00
2018-08-06T05:54:52.189Z,99995.00
2018-08-06T05:57:22.241Z,99994.00
2018-08-06T05:59:52.259Z,99991.00
2018-08-06T06:02:22.283Z,99992.00
2018-08-06T06:04:52.006Z,99994.00
2018-08-06T06:07:21.959Z,99990.00
2018-08-06T06:09:52.570Z,99985.00
2018-08-06T06:12:22.594Z,99984.00
2018-08-06T06:14:52.570Z,99978.00
2018-08-06T06:17:22.602Z,99983.00
2018-08-06T06:19:52.691Z,99989.00
2018-08-06T06:22:22.558Z,99988.00
2018-08-06T06:24:52.582Z,99985.00
2018-08-06T06:27:22.595Z,99986.00
2018-08-06T06:29:52.649Z,99984.00
2018-08-06T06:32:22.763Z,99983.00
2018-08-06T06:34:52.775Z,99971.00
2018-08-06T06:37:22.762Z,99972.00
2018-08-06T06:39:52.942Z,99969.00
2018-08-06T06:42:22.979Z,99964.00
2018-08-06T06:44:57.316Z,99962.00
2018-08-06T06:47:27.351Z,99964.00
2018-08-06T06:49:57.343Z,99957.00
2018-08-06T06:52:27.101Z,99957.00
2018-08-06T06:54:57.244Z,99956.00
2018-08-06T06:57:27.107Z,99958.00
2018-08-06T06:59:56.736Z,99953.00
2018-08-06T07:02:26.591Z,99949.00
2018-08-06T07:04:56.578Z,99952.00
2018-08-06T07:07:26.329Z,99946.00
2018-08-06T07:09:55.994Z,99952.00
2018-08-06T07:12:25.903Z,99950.00
2018-08-06T07:14:55.902Z,99950.00
2018-08-06T07:17:25.974Z,99942.00
2018-08-06T07:19:56.230Z,99944.00
2018-08-06T07:22:26.290Z,99939.00
2018-08-06T07:24:56.076Z,99936.00
2018-08-06T07:27:26.139Z,99928.00
2018-08-06T07:29:56.153Z,99926.00
2018-08-06T07:32:26.187Z,99920.00
2018-08-06T07:34:56.230Z,99920.00
2018-08-06T07:37:27.320Z,99913.00
2018-08-06T07:39:57.327Z,99910.00
2018-08-06T07:42:27.395Z,99912.00
2018-08-06T07:44:57.406Z,99909.00
2018-08-06T07:47:27.411Z,99902.00
2018-08-06T07:49:57.471Z,99907.00
2018-08-06T07:52:27.494Z,99890.00
2018-08-06T07:54:57.535Z,99898.00
2018-08-06T07:57:27.534Z,99889.00
2018-08-06T07:59:57.541Z,99894.00
2018-08-06T08:02:27.591Z,99892.00
2018-08-06T08:04:57.590Z,99893.00
2018-08-06T08:07:27.617Z,99890.00
2018-08-06T08:09:57.610Z,99892.00
2018-08-06T08:12:27.679Z,99891.00
2018-08-06T08:14:57.818Z,99893.00
2018-08-06T08:17:27.818Z,99887.00
2018-08-06T08:19:57.921Z,99893.00
2018-08-06T08:22:27.990Z,99891.00
2018-08-06T08:24:57.967Z,99884.00
2018-08-06T08:27:27.975Z,99882.00
2018-08-06T08:29:58.063Z,99877.00
2018-08-06T08:32:27.848Z,99877.00
2018-08-06T08:34:57.719Z,99870.00
2018-08-06T08:37:27.754Z,99875.00
2018-08-06T08:39:57.759Z,99868.00
2018-08-06T08:42:27.746Z,99871.00
2018-08-06T08:44:57.798Z,99863.00
2018-08-06T08:47:27.778Z,99860.00
2018-08-06T08:49:57.785Z,99857.00
2018-08-06T08:52:27.776Z,99856.00
2018-08-06T08:54:58.106Z,99862.00
2018-08-06T08:57:28.046Z,99857.00
2018-08-06T08:59:58.051Z,99852.00
2018-08-06T09:02:28.035Z,99847.00
2018-08-06T09:04:58.158Z,99843.00
2018-08-06T09:07:28.344Z,99840.00
2018-08-06T09:09:58.222Z,99837.00
2018-08-06T09:12:28.234Z,99834.00
2018-08-06T09:14:58.238Z,99830.00
2018-08-06T09:17:28.219Z,99831.00
2018-08-06T09:19:58.227Z,99825.00
2018-08-06T09:22:27.978Z,99827.00
2018-08-06T09:24:57.870Z,99820.00
2018-08-06T09:27:27.907Z,99824.00
2018-08-06T09:29:59.303Z,99818.00
2018-08-06T09:32:29.285Z,99815.00
2018-08-06T09:34:59.290Z,99819.00
2018-08-06T09:37:29.327Z,99810.00
2018-08-06T09:39:59.334Z,99820.00
2018-08-06T09:42:29.338Z,99808.00
2018-08-06T09:44:59.225Z,99799.00
2018-08-06T09:47:29.075Z,99798.00
2018-08-06T09:49:59.083Z,99800.00
2018-08-06T09:52:29.084Z,99796.00
2018-08-06T09:54:59.099Z,99795.00
2018-08-06T09:57:29.070Z,99787.00
2018-08-06T09:59:59.158Z,99783.00
2018-08-06T10:02:29.198Z,99785.00
2018-08-06T10:04:59.253Z,99791.00
2018-08-06T10:07:29.227Z,99787.00
2018-08-06T10:09:59.249Z,99774.00
2018-08-06T10:12:28.978Z,99776.00
2018-08-06T10:14:58.859Z,99777.00
2018-08-06T10:17:28.863Z,99769.00
2018-08-06T10:19:58.851Z,99768.00
2018-08-06T10:22:28.843Z,99769.00
2018-08-06T10:24:58.850Z,99759.00
2018-08-06T10:27:28.868Z,99756.00
2018-08-06T10:29:59.294Z,99752.00
2018-08-06T10:32:29.320Z,99753.00
2018-08-06T10:34:59.347Z,99754.00
2018-08-06T10:37:29.075Z,99749.00
2018-08-06T10:39:59.096Z,99754.00
2018-08-06T10:42:29.100Z,99743.00
2018-08-06T10:44:59.122Z,99732.00
2018-08-06T10:47:29.098Z,99726.00
2018-08-06T10:49:59.110Z,99729.00
2018-08-06T10:52:29.096Z,99720.00
2018-08-06T10:54:59.147Z,99717.00
2018-08-06T10:57:29.202Z,99719.00
2018-08-06T10:59:59.195Z,99712.00
2018-08-06T11:02:29.216Z,99714.00
2018-08-06T11:04:59.372Z,99714.00
2018-08-06T11:07:29.389Z,99700.00
2018-08-06T11:09:59.427Z,99695.00
2018-08-06T11:12:29.447Z,99695.00
2018-08-06T11:14:59.455Z,99690.00
2018-08-06T11:17:29.433Z,99693.00
2018-08-06T11:19:59.467Z,99686.00
2018-08-06T11:22:29.507Z,99685.00
2018-08-06T11:24:59.520Z,99683.00
2018-08-06T11:27:29.814Z,99676.00
2018-08-06T11:30:00.319Z,99680.00
2018-08-06T11:32:30.683Z,99676.00
2018-08-06T11:35:00.776Z,99673.00
2018-08-06T11:37:30.799Z,99676.00
2018-08-06T11:40:00.818Z,99672.00
2018-08-06T11:42:31.058Z,99671.00
2018-08-06T11:45:01.463Z,99666.00
2018-08-06T11:47:31.769Z,99658.00
2018-08-06T11:50:04.982Z,99658.00
2018-08-06T11:52:37.253Z,99653.00
2018-08-06T11:55:10.645Z,99663.00
2018-08-06T11:57:44.682Z,99660.00
2018-08-06T12:00:19.184Z,99653.00
2018-08-06T12:02:50.530Z,99647.00
2018-08-06T12:05:20.738Z,99649.00
2018-08-06T12:07:50.873Z,99656.00
2018-08-06T12:10:20.970Z,99653.00
2018-08-06T12:12:51.372Z,99648.00
2018-08-06T12:15:21.801Z,99641.00
2018-08-06T12:17:51.843Z,99642.00
2018-08-06T12:20:22.104Z,99635.00
2018-08-06T12:22:52.351Z,99626.00
2018-08-06T12:25:22.379Z,99628.00
2018-08-06T12:27:52.266Z,99627.00
2018-08-06T12:30:23.261Z,99628.00
2018-08-06T12:32:54.168Z,99628.00
2018-08-06T12:35:24.166Z,99624.00
2018-08-06T12:37:54.171Z,99623.00
2018-08-06T12:40:24.205Z,99619.00
2018-08-06T12:42:54.294Z,99621.00
2018-08-06T12:45:24.146Z,99616.00
2018-08-06T12:47:54.092Z,99617.00
2018-08-06T12:50:24.082Z,99607.00
2018-08-06T12:52:54.122Z,99606.00
2018-08-06T12:55:24.151Z,99597.00
2018-08-06T12:57:54.284Z,99601.00
2018-08-06T13:00:25.710Z,99597.00
2018-08-06T13:02:56.023Z,99590.00
2018-08-06T13:05:26.182Z,99590.00
2018-08-06T13:07:56.358Z,99589.00
2018-08-06T13:10:26.366Z,99586.00
2018-08-06T13:12:56.381Z,99584.00
2018-08-06T13:15:26.259Z,99588.00
2018-08-06T13:17:56.397Z,99585.00
2018-08-06T13:20:26.364Z,99584.00
2018-08-06T13:22:56.374Z,99577.00
2018-08-06T13:25:26.440Z,99573.00
2018-08-06T13:27:56.614Z,99568.00
2018-08-06T13:30:26.497Z,99572.00
2018-08-06T13:32:56.263Z,99568.00
2018-08-06T13:35:26.162Z,99572.00
2018-08-06T13:37:56.207Z,99558.00
2018-08-06T13:40:26.232Z,99560.00
2018-08-06T13:42:56.215Z,99562.00
2018-08-06T13:45:26.363Z,99557.00
2018-08-06T13:47:56.422Z,99558.00
2018-08-06T13:50:26.563Z,99552.00
2018-08-06T13:52:56.632Z,99548.00
2018-08-06T13:55:26.346Z,99539.00
2018-08-06T13:57:56.617Z,99534.00
2018-08-06T14:00:26.651Z,99529.00
2018-08-06T14:02:56.663Z,99528.00
2018-08-06T14:05:26.747Z,99533.00
2018-08-06T14:07:56.707Z,99533.00
2018-08-06T14:10:26.722Z,99531.00
2018-08-06T14:12:56.742Z,99537.00
2018-08-06T14:15:26.734Z,99531.00
2018-08-06T14:17:56.844Z,99525.00
2018-08-06T14:20:26.975Z,99519.00
2018-08-06T14:22:56.999Z,99509.00
2018-08-06T14:25:27.014Z,99512.00
2018-08-06T14:27:57.201Z,99503.00
2018-08-06T14:30:27.257Z,99496.00
2018-08-06T14:32:57.278Z,99515.00
2018-08-06T14:35:27.286Z,99500.00
2018-08-06T14:37:57.326Z,99502.00
2018-08-06T14:40:27.328Z,99502.00
2018-08-06T14:42:57.343Z,99492.00
2018-08-06T14:45:27.162Z,99494.00
2018-08-06T14:47:57.233Z,99485.00
2018-08-06T14:50:27.278Z,99488.00
2018-08-06T14:52:57.289Z,99483.00
2018-08-06T14:55:27.301Z,99475.00
2018-08-06T14:57:57.639Z,99473.00
2018-08-06T15:00:27.667Z,99475.00
2018-08-06T15:02:57.686Z,99469.00
2018-08-06T15:05:27.686Z,99472.00
2018-08-06T15:07:57.838Z,99469.00
2018-08-06T15:10:27.844Z,99462.00
2018-08-06T15:12:57.963Z,99456.00
2018-08-06T15:15:27.993Z,99458.00
2018-08-06T15:17:58.152Z,99463.00
2018-08-06T15:20:28.242Z,99450.00
2018-08-06T15:22:58.289Z,99445.00
2018-08-06T15:25:28.326Z,99440.00
2018-08-06T15:27:58.491Z,99432.00
2018-08-06T15:30:28.491Z,99435.00
2018-08-06T15:32:58.318Z,99436.00
2018-08-06T15:35:28.214Z,99432.00
2018-08-06T15:37:58.409Z,99433.00
2018-08-06T15:40:28.414Z,99425.00
2018-08-06T15:42:58.417Z,99415.00
2018-08-06T15:45:28.471Z,99426.00
2018-08-06T15:47:59.159Z,99423.00
2018-08-06T15:50:29.199Z,99418.00
2018-08-06T15:52:59.418Z,99414.00
2018-08-06T15:55:29.474Z,99410.00
2018-08-06T15:58:00.124Z,99414.00
2018-08-06T16:00:30.357Z,99414.00
2018-08-06T16:03:00.354Z,99411.00
2018-08-06T16:05:30.618Z,99413.00
2018-08-06T16:08:00.750Z,99412.00
2018-08-06T16:10:30.730Z,99401.00
2018-08-06T16:13:01.082Z,99395.00
2018-08-06T16:15:31.094Z,99395.00
2018-08-06T16:18:01.086Z,99394.00
2018-08-06T16:20:31.082Z,99393.00
2018-08-06T16:23:01.648Z,99395.00
2018-08-06T16:25:31.722Z,99395.00
2018-08-06T16:28:05.169Z,99391.00
2018-08-06T16:30:38.983Z,99388.00
2018-08-06T16:33:12.717Z,99388.00
2018-08-06T16:35:42.945Z,99384.00
2018-08-06T16:38:13.421Z,99386.00
2018-08-06T16:40:44.120Z,99384.00
2018-08-06T16:43:15.400Z,99380.00
2018-08-06T16:45:46.502Z,99387.00
2018-08-06T16:48:18.105Z,99385.00
2018-08-06T16:50:49.187Z,99382.00
2018-08-06T16:53:19.578Z,99378.00
2018-08-06T16:55:50.091Z,99374.00
2018-08-06T16:58:20.135Z,99374.00
2018-08-06T17:00:50.198Z,99368.00
2018-08-06T17:03:20.605Z,99372.00
2018-08-06T17:05:50.337Z,99369.00
2018-08-06T17:08:20.347Z,99369.00
2018-08-06T17:10:50.356Z,99371.00
2018-08-06T17:13:20.482Z,99365.00
2018-08-06T17:15:50.528Z,99372.00
2018-08-06T17:18:20.558Z,99371.00
2018-08-06T17:20:50.679Z,99372.00
2018-08-06T17:23:21.250Z,99373.00
2018-08-06T17:25:51.274Z,99371.00
2018-08-06T17:28:21.705Z,99370.00
2018-08-06T17:30:51.731Z,99374.00
2018-08-06T17:33:21.958Z,99375.00
2018-08-06T17:35:51.958Z,99373.00
2018-08-06T17:38:22.027Z,99372.00
2018-08-06T17:40:52.123Z,99381.00
2018-08-06T17:43:22.147Z,99381.00
2018-08-06T17:45:52.409Z,99384.00
2018-08-06T17:48:22.555Z,99383.00
2018-08-06T17:50:52.681Z,99387.00
2018-08-06T17:53:22.715Z,99386.00
2018-08-06T17:55:52.758Z,99388.00
2018-08-06T17:58:22.765Z,99389.00
2018-08-06T18:00:52.768Z,99397.00
2018-08-06T18:03:22.756Z,99397.00
2018-08-06T18:05:52.758Z,99396.00
2018-08-06T18:08:22.750Z,99402.00
2018-08-06T18:10:52.746Z,99401.00
2018-08-06T18:13:22.746Z,99406.00
2018-08-06T18:15:52.745Z,99398.00
2018-08-06T18:18:22.731Z,99400.00
2018-08-06T18:20:52.734Z,99398.00
2018-08-06T18:23:22.714Z,99402.00
2018-08-06T18:25:53.028Z,99408.00
2018-08-06T18:28:23.025Z,99412.00
2018-08-06T18:30:53.362Z,99413.00
2018-08-06T18:33:23.378Z,99414.00
2018-08-06T18:35:53.396Z,99418.00
2018-08-06T18:38:23.394Z,99420.00
2018-08-06T18:40:53.402Z,99425.00
2018-08-06T18:43:23.387Z,99428.00
2018-08-06T18:45:53.402Z,99423.00
2018-08-06T18:48:23.755Z,99424.00
2018-08-06T18:50:53.786Z,99425.00
2018-08-06T18:53:23.850Z,99423.00
2018-08-06T18:55:53.862Z,99421.00
2018-08-06T18:58:23.990Z,99424.00
2018-08-06T19:00:54.007Z,99429.00
2018-08-06T19:03:23.980Z,99434.00
2018-08-06T19:05:54.011Z,99432.00
2018-08-06T19:08:24.282Z,99435.00
2018-08-06T19:10:54.282Z,99435.00
2018-08-06T19:13:29.522Z,99437.00
2018-08-06T19:15:59.878Z,99442.00
2018-08-06T19:18:35.154Z,99443.00
2018-08-06T19:21:06.775Z,99443.00
2018-08-06T19:23:39.405Z,99441.00
2018-08-06T19:26:11.573Z,99451.00
2018-08-06T19:28:42.454Z,99452.00
2018-08-06T19:31:18.562Z,99445.00
2018-08-06T19:33:49.147Z,99454.00
2018-08-06T19:36:19.383Z,99449.00
2018-08-06T19:38:49.466Z,99453.00
2018-08-06T19:41:19.467Z,99447.00
2018-08-06T19:43:49.694Z,99449.00
2018-08-06T19:46:19.670Z,99447.00
2018-08-06T19:48:50.168Z,99451.00
2018-08-06T19:51:20.214Z,99452.00
2018-08-06T19:53:50.208Z,99452.00
2018-08-06T19:56:19.961Z,99454.00
2018-08-06T19:58:49.898Z,99459.00
2018-08-06T20:01:19.937Z,99461.00
2018-08-06T20:03:49.735Z,99466.00
2018-08-06T20:06:19.699Z,99469.00
2018-08-06T20:08:49.826Z,99469.00
2018-08-06T20:11:19.558Z,99474.00
2018-08-06T20:13:49.521Z,99475.00
2018-08-06T20:16:19.519Z,99473.00
2018-08-06T20:18:49.526Z,99471.00
2018-08-06T20:21:19.502Z,99467.00
2018-08-06T20:23:49.590Z,99466.00
2018-08-06T20:26:19.655Z,99466.00
2018-08-06T20:28:49.671Z,99466.00
2018-08-06T20:31:19.713Z,99464.00
2018-08-06T20:33:49.746Z,99459.00
2018-08-06T20:36:19.759Z,99460.00
2018-08-06T20:38:49.924Z,99458.00
2018-08-06T20:41:19.973Z,99458.00
2018-08-06T20:43:50.047Z,99453.00
2018-08-06T20:46:20.039Z,99457.00
2018-08-06T20:48:50.055Z,99459.00
2018-08-06T20:51:20.083Z,99456.00
2018-08-06T20:53:50.158Z,99456.00
2018-08-06T20:56:20.137Z,99459.00
2018-08-06T20:58:50.450Z,99463.00
2018-08-06T21:01:20.522Z,99467.00
2018-08-06T21:03:50.570Z,99469.00
2018-08-06T21:06:20.332Z,99468.00
2018-08-06T21:08:50.450Z,99467.00
2018-08-06T21:11:20.450Z,99465.00
2018-08-06T21:13:50.548Z,99466.00
2018-08-06T21:16:20.549Z,99463.00
2018-08-06T21:18:50.590Z,99467.00
2018-08-06T21:21:20.594Z,99471.00
2018-08-06T21:23:50.805Z,99473.00
2018-08-06T21:26:20.849Z,99468.00
2018-08-06T21:28:50.954Z,99469.00
2018-08-06T21:31:21.014Z,99465.00
2018-08-06T21:33:51.154Z,99470.00
2018-08-06T21:36:21.169Z,99465.00
2018-08-06T21:38:51.323Z,99475.00
2018-08-06T21:41:21.375Z,99479.00
2018-08-06T21:43:51.360Z,99482.00
2018-08-06T21:46:21.364Z,99479.00
2018-08-06T21:48:51.390Z,99483.00
2018-08-06T21:51:21.422Z,99486.00
2018-08-06T21:53:51.492Z,99479.00
2018-08-06T21:56:21.502Z,99479.00
2018-08-06T21:58:51.611Z,99485.00
2018-08-06T22:01:21.672Z,99484.00
2018-08-06T22:03:51.433Z,99486.00
2018-08-06T22:06:21.483Z,99481.00
2018-08-06T22:08:51.539Z,99479.00
2018-08-06T22:11:21.317Z,99487.00
2018-08-06T22:13:51.232Z,99486.00
2018-08-06T22:16:21.262Z,99484.00
2018-08-06T22:18:51.455Z,99481.00
2018-08-06T22:21:21.476Z,99481.00
2018-08-06T22:23:51.607Z,99478.00
2018-08-06T22:26:22.078Z,99474.00
2018-08-06T22:28:52.087Z,99473.00
2018-08-06T22:31:22.239Z,99472.00
2018-08-06T22:33:52.454Z,99466.00
2018-08-06T22:36:22.452Z,99465.00
2018-08-06T22:38:52.529Z,99462.00
2018-08-06T22:41:23.240Z,99465.00
2018-08-06T22:43:53.459Z,99453.00
2018-08-06T22:46:23.795Z,99456.00
2018-08-06T22:48:53.901Z,99463.00
2018-08-06T22:51:24.363Z,99458.00
2018-08-06T22:53:54.406Z,99446.00
2018-08-06T22:56:24.722Z,99456.00
2018-08-06T22:58:54.742Z,99454.00
2018-08-06T23:01:24.730Z,99450.00
2018-08-06T23:03:54.497Z,99451.00
2018-08-06T23:06:24.366Z,99448.00
2018-08-06T23:08:54.464Z,99447.00
2018-08-06T23:11:24.371Z,99455.00
2018-08-06T23:13:54.455Z,99450.00
2018-08-06T23:16:24.222Z,99444.00
2018-08-06T23:18:54.565Z,99442.00
2018-08-06T23:21:24.534Z,99439.00
2018-08-06T23:23:54.575Z,99433.00
2018-08-06T23:26:24.533Z,99432.00
2018-08-06T23:28:54.774Z,99434.00
2018-08-06T23:31:24.969Z,99432.00
2018-08-06T23:33:55.055Z,99426.00
2018-08-06T23:36:25.222Z,99422.00
2018-08-06T23:38:55.300Z,99418.00
2018-08-06T23:41:26.498Z,99416.00
2018-08-06T23:43:56.500Z,99414.00
2018-08-06T23:46:26.481Z,99414.00
2018-08-06T23:48:56.502Z,99415.00
2018-08-06T23:51:26.500Z,99414.00
2018-08-06T23:53:57.001Z,99413.00
2018-08-06T23:56:27.026Z,99413.00
2018-08-06T23:58:57.422Z,99409.00
